Terminal Aerodrome Forecast
Issued by NWS Topeka, KS

Home | Current Version | Previous Version | Text Only | Print | Product List | Glossary Off
Versions: 1 2 3 4 5 6 7 8 9 10 11 12

000
FTUS43 KTOP 262300
TAFTOP
TAF
KTOP 262333Z 2700/2724 22006KT P6SM SCT120
     FM270400 36007KT P6SM SCT150
     FM271400 34013G20KT P6SM SKC=

USA.gov is the U.S. government's official web portal to all federal, state and local government web resources and services.